sensor_id;sensor_type;location;lat;lon;timestamp;P1;durP1;ratioP1;P2;durP2;ratioP2
39778;SDS011;25454;49.878;8.618;2022-09-28T00:02:49;3.90;;;2.90;;
39778;SDS011;25454;49.878;8.618;2022-09-28T00:07:51;10.17;;;3.17;;
39778;SDS011;25454;49.878;8.618;2022-09-28T00:12:53;5.63;;;2.80;;
39778;SDS011;25454;49.878;8.618;2022-09-28T00:17:56;6.07;;;3.17;;
39778;SDS011;25454;49.878;8.618;2022-09-28T00:22:57;4.80;;;3.30;;
39778;SDS011;25454;49.878;8.618;2022-09-28T00:27:57;8.80;;;3.83;;
39778;SDS011;25454;49.878;8.618;2022-09-28T00:32:58;6.40;;;3.93;;
39778;SDS011;25454;49.878;8.618;2022-09-28T00:37:59;8.33;;;4.40;;
39778;SDS011;25454;49.878;8.618;2022-09-28T00:43:15;8.87;;;5.10;;
39778;SDS011;25454;49.878;8.618;2022-09-28T00:48:19;8.40;;;4.90;;
39778;SDS011;25454;49.878;8.618;2022-09-28T00:53:23;9.73;;;6.33;;
39778;SDS011;25454;49.878;8.618;2022-09-28T00:58:29;13.43;;;6.83;;
39778;SDS011;25454;49.878;8.618;2022-09-28T01:03:32;10.80;;;6.77;;
39778;SDS011;25454;49.878;8.618;2022-09-28T01:08:33;9.63;;;7.10;;
39778;SDS011;25454;49.878;8.618;2022-09-28T01:13:35;9.10;;;6.40;;
39778;SDS011;25454;49.878;8.618;2022-09-28T01:18:39;12.93;;;6.80;;
39778;SDS011;25454;49.878;8.618;2022-09-28T01:24:13;9.00;;;6.13;;
39778;SDS011;25454;49.878;8.618;2022-09-28T01:29:26;10.30;;;5.77;;
39778;SDS011;25454;49.878;8.618;2022-09-28T01:35:04;10.10;;;6.30;;
39778;SDS011;25454;49.878;8.618;2022-09-28T01:40:14;7.60;;;5.17;;
39778;SDS011;25454;49.878;8.618;2022-09-28T01:45:21;11.03;;;5.90;;
39778;SDS011;25454;49.878;8.618;2022-09-28T01:50:27;6.07;;;4.70;;
39778;SDS011;25454;49.878;8.618;2022-09-28T01:55:36;6.87;;;4.63;;
39778;SDS011;25454;49.878;8.618;2022-09-28T02:00:46;11.53;;;5.23;;
39778;SDS011;25454;49.878;8.618;2022-09-28T02:05:57;11.13;;;5.40;;
39778;SDS011;25454;49.878;8.618;2022-09-28T02:11:06;8.23;;;5.40;;
39778;SDS011;25454;49.878;8.618;2022-09-28T02:16:18;8.17;;;5.30;;
39778;SDS011;25454;49.878;8.618;2022-09-28T02:21:26;10.60;;;5.63;;
39778;SDS011;25454;49.878;8.618;2022-09-28T02:26:33;8.00;;;5.40;;
39778;SDS011;25454;49.878;8.618;2022-09-28T02:31:36;11.93;;;5.40;;
39778;SDS011;25454;49.878;8.618;2022-09-28T02:36:37;6.87;;;5.30;;
39778;SDS011;25454;49.878;8.618;2022-09-28T02:41:54;6.80;;;5.03;;
39778;SDS011;25454;49.878;8.618;2022-09-28T02:47:31;5.73;;;4.60;;
39778;SDS011;25454;49.878;8.618;2022-09-28T02:52:46;4.80;;;4.30;;
39778;SDS011;25454;49.878;8.618;2022-09-28T02:59:00;4.27;;;3.87;;
39778;SDS011;25454;49.878;8.618;2022-09-28T03:03:51;3.87;;;3.00;;
39778;SDS011;25454;49.878;8.618;2022-09-28T03:08:58;4.03;;;2.90;;
39778;SDS011;25454;49.878;8.618;2022-09-28T03:14:03;3.73;;;2.90;;
39778;SDS011;25454;49.878;8.618;2022-09-28T03:19:07;8.97;;;2.30;;
39778;SDS011;25454;49.878;8.618;2022-09-28T03:24:08;3.10;;;2.40;;
39778;SDS011;25454;49.878;8.618;2022-09-28T03:29:10;2.73;;;2.10;;
39778;SDS011;25454;49.878;8.618;2022-09-28T03:34:10;0.97;;;0.97;;
39778;SDS011;25454;49.878;8.618;2022-09-28T03:39:11;1.47;;;1.30;;
39778;SDS011;25454;49.878;8.618;2022-09-28T03:44:12;2.23;;;1.43;;
39778;SDS011;25454;49.878;8.618;2022-09-28T03:49:12;1.87;;;1.20;;
39778;SDS011;25454;49.878;8.618;2022-09-28T03:54:13;1.20;;;1.10;;
39778;SDS011;25454;49.878;8.618;2022-09-28T03:59:13;2.23;;;1.03;;
39778;SDS011;25454;49.878;8.618;2022-09-28T04:04:14;1.73;;;1.43;;
39778;SDS011;25454;49.878;8.618;2022-09-28T04:09:15;2.20;;;1.30;;
39778;SDS011;25454;49.878;8.618;2022-09-28T04:14:15;2.90;;;1.20;;
39778;SDS011;25454;49.878;8.618;2022-09-28T04:19:16;1.30;;;0.77;;
39778;SDS011;25454;49.878;8.618;2022-09-28T04:24:17;1.80;;;1.00;;
39778;SDS011;25454;49.878;8.618;2022-09-28T04:29:19;4.27;;;1.00;;
39778;SDS011;25454;49.878;8.618;2022-09-28T04:34:20;1.53;;;0.70;;
39778;SDS011;25454;49.878;8.618;2022-09-28T04:39:21;2.03;;;0.90;;
39778;SDS011;25454;49.878;8.618;2022-09-28T04:44:22;0.70;;;0.70;;
39778;SDS011;25454;49.878;8.618;2022-09-28T04:49:23;2.47;;;0.90;;
39778;SDS011;25454;49.878;8.618;2022-09-28T04:54:23;1.60;;;0.90;;
39778;SDS011;25454;49.878;8.618;2022-09-28T04:59:25;2.60;;;2.40;;
39778;SDS011;25454;49.878;8.618;2022-09-28T05:04:25;2.17;;;1.30;;
39778;SDS011;25454;49.878;8.618;2022-09-28T05:09:27;0.90;;;0.90;;
39778;SDS011;25454;49.878;8.618;2022-09-28T05:14:27;2.80;;;1.10;;
39778;SDS011;25454;49.878;8.618;2022-09-28T05:19:28;2.53;;;1.20;;
39778;SDS011;25454;49.878;8.618;2022-09-28T05:24:29;1.63;;;1.13;;
39778;SDS011;25454;49.878;8.618;2022-09-28T05:29:30;2.87;;;1.17;;
39778;SDS011;25454;49.878;8.618;2022-09-28T05:34:30;2.47;;;1.47;;
39778;SDS011;25454;49.878;8.618;2022-09-28T05:39:31;1.87;;;1.60;;
39778;SDS011;25454;49.878;8.618;2022-09-28T05:44:32;3.50;;;1.50;;
39778;SDS011;25454;49.878;8.618;2022-09-28T05:49:33;2.17;;;1.10;;
39778;SDS011;25454;49.878;8.618;2022-09-28T05:54:33;3.60;;;1.43;;
39778;SDS011;25454;49.878;8.618;2022-09-28T05:59:34;3.43;;;1.53;;
39778;SDS011;25454;49.878;8.618;2022-09-28T06:04:35;3.33;;;1.93;;
39778;SDS011;25454;49.878;8.618;2022-09-28T06:09:35;3.43;;;2.17;;
39778;SDS011;25454;49.878;8.618;2022-09-28T06:14:37;2.57;;;1.87;;
39778;SDS011;25454;49.878;8.618;2022-09-28T06:19:38;4.80;;;2.50;;
39778;SDS011;25454;49.878;8.618;2022-09-28T06:24:39;4.83;;;3.03;;
39778;SDS011;25454;49.878;8.618;2022-09-28T06:29:40;3.00;;;2.23;;
39778;SDS011;25454;49.878;8.618;2022-09-28T06:34:41;3.80;;;3.30;;
39778;SDS011;25454;49.878;8.618;2022-09-28T06:39:41;4.00;;;2.37;;
39778;SDS011;25454;49.878;8.618;2022-09-28T06:44:42;3.17;;;1.70;;
39778;SDS011;25454;49.878;8.618;2022-09-28T06:49:42;3.17;;;2.00;;
39778;SDS011;25454;49.878;8.618;2022-09-28T06:54:45;3.90;;;1.90;;
39778;SDS011;25454;49.878;8.618;2022-09-28T06:59:45;4.17;;;1.80;;
39778;SDS011;25454;49.878;8.618;2022-09-28T07:04:46;4.30;;;1.70;;
39778;SDS011;25454;49.878;8.618;2022-09-28T07:09:46;2.00;;;1.60;;
39778;SDS011;25454;49.878;8.618;2022-09-28T07:14:51;2.83;;;1.50;;
39778;SDS011;25454;49.878;8.618;2022-09-28T07:19:56;2.47;;;1.27;;
39778;SDS011;25454;49.878;8.618;2022-09-28T07:24:57;1.67;;;1.17;;
39778;SDS011;25454;49.878;8.618;2022-09-28T07:29:58;1.87;;;1.20;;
39778;SDS011;25454;49.878;8.618;2022-09-28T07:35:02;6.27;;;3.77;;
39778;SDS011;25454;49.878;8.618;2022-09-28T07:40:07;1.13;;;0.80;;
39778;SDS011;25454;49.878;8.618;2022-09-28T07:45:27;2.93;;;0.60;;
39778;SDS011;25454;49.878;8.618;2022-09-28T07:50:29;7.63;;;0.87;;
39778;SDS011;25454;49.878;8.618;2022-09-28T07:55:30;1.23;;;0.70;;
39778;SDS011;25454;49.878;8.618;2022-09-28T08:00:30;1.23;;;0.70;;
39778;SDS011;25454;49.878;8.618;2022-09-28T08:05:32;3.13;;;0.70;;
39778;SDS011;25454;49.878;8.618;2022-09-28T08:10:35;2.03;;;1.00;;
39778;SDS011;25454;49.878;8.618;2022-09-28T08:15:36;1.10;;;0.77;;
39778;SDS011;25454;49.878;8.618;2022-09-28T08:20:37;1.93;;;0.70;;
39778;SDS011;25454;49.878;8.618;2022-09-28T08:25:56;2.63;;;0.80;;
39778;SDS011;25454;49.878;8.618;2022-09-28T08:30:58;0.83;;;0.50;;
39778;SDS011;25454;49.878;8.618;2022-09-28T08:36:02;1.90;;;0.77;;
39778;SDS011;25454;49.878;8.618;2022-09-28T08:46:20;5.30;;;0.80;;
39778;SDS011;25454;49.878;8.618;2022-09-28T08:51:26;2.10;;;0.80;;
39778;SDS011;25454;49.878;8.618;2022-09-28T08:56:52;0.77;;;0.63;;
39778;SDS011;25454;49.878;8.618;2022-09-28T09:01:59;2.17;;;0.70;;
39778;SDS011;25454;49.878;8.618;2022-09-28T09:07:08;3.07;;;1.03;;
39778;SDS011;25454;49.878;8.618;2022-09-28T09:23:36;1.77;;;0.77;;
39778;SDS011;25454;49.878;8.618;2022-09-28T09:29:07;1.53;;;0.73;;
39778;SDS011;25454;49.878;8.618;2022-09-28T09:34:24;2.17;;;0.70;;
39778;SDS011;25454;49.878;8.618;2022-09-28T09:45:01;1.67;;;0.57;;
39778;SDS011;25454;49.878;8.618;2022-09-28T09:50:09;0.90;;;0.60;;
39778;SDS011;25454;49.878;8.618;2022-09-28T09:55:30;2.63;;;0.63;;
39778;SDS011;25454;49.878;8.618;2022-09-28T10:00:40;2.70;;;0.73;;
39778;SDS011;25454;49.878;8.618;2022-09-28T10:06:09;3.30;;;1.00;;
39778;SDS011;25454;49.878;8.618;2022-09-28T10:11:14;1.07;;;0.80;;
39778;SDS011;25454;49.878;8.618;2022-09-28T10:16:20;1.27;;;0.67;;
39778;SDS011;25454;49.878;8.618;2022-09-28T10:21:21;1.47;;;0.70;;
39778;SDS011;25454;49.878;8.618;2022-09-28T10:26:24;1.93;;;0.67;;
39778;SDS011;25454;49.878;8.618;2022-09-28T10:32:02;2.90;;;0.97;;
39778;SDS011;25454;49.878;8.618;2022-09-28T10:37:02;2.60;;;0.70;;
39778;SDS011;25454;49.878;8.618;2022-09-28T10:42:08;2.50;;;0.60;;
39778;SDS011;25454;49.878;8.618;2022-09-28T10:47:13;0.63;;;0.50;;
39778;SDS011;25454;49.878;8.618;2022-09-28T10:52:36;1.57;;;0.70;;
39778;SDS011;25454;49.878;8.618;2022-09-28T10:57:47;0.67;;;0.40;;
39778;SDS011;25454;49.878;8.618;2022-09-28T11:02:48;3.17;;;0.67;;
39778;SDS011;25454;49.878;8.618;2022-09-28T11:07:48;1.23;;;0.60;;
39778;SDS011;25454;49.878;8.618;2022-09-28T11:12:51;1.47;;;0.60;;
39778;SDS011;25454;49.878;8.618;2022-09-28T11:17:53;2.53;;;0.70;;
39778;SDS011;25454;49.878;8.618;2022-09-28T11:22:55;1.93;;;0.70;;
39778;SDS011;25454;49.878;8.618;2022-09-28T11:28:18;0.70;;;0.50;;
39778;SDS011;25454;49.878;8.618;2022-09-28T11:33:29;1.97;;;0.70;;
39778;SDS011;25454;49.878;8.618;2022-09-28T11:38:39;1.30;;;0.60;;
39778;SDS011;25454;49.878;8.618;2022-09-28T11:44:19;1.90;;;0.53;;
39778;SDS011;25454;49.878;8.618;2022-09-28T11:49:30;1.93;;;0.77;;
39778;SDS011;25454;49.878;8.618;2022-09-28T11:54:39;1.07;;;0.40;;
39778;SDS011;25454;49.878;8.618;2022-09-28T12:10:37;0.97;;;0.57;;
39778;SDS011;25454;49.878;8.618;2022-09-28T12:15:58;2.27;;;0.70;;
39778;SDS011;25454;49.878;8.618;2022-09-28T12:26:38;1.20;;;0.57;;
39778;SDS011;25454;49.878;8.618;2022-09-28T12:31:57;1.40;;;0.60;;
39778;SDS011;25454;49.878;8.618;2022-09-28T13:19:46;1.27;;;0.50;;
39778;SDS011;25454;49.878;8.618;2022-09-28T13:24:58;0.97;;;0.50;;
39778;SDS011;25454;49.878;8.618;2022-09-28T13:30:03;0.23;;;0.23;;
39778;SDS011;25454;49.878;8.618;2022-09-28T13:35:05;0.53;;;0.50;;
39778;SDS011;25454;49.878;8.618;2022-09-28T13:40:12;2.73;;;0.50;;
39778;SDS011;25454;49.878;8.618;2022-09-28T13:45:30;1.43;;;0.50;;
39778;SDS011;25454;49.878;8.618;2022-09-28T13:51:03;2.03;;;0.60;;
39778;SDS011;25454;49.878;8.618;2022-09-28T14:01:36;4.27;;;1.40;;
39778;SDS011;25454;49.878;8.618;2022-09-28T14:06:43;2.63;;;0.60;;
39778;SDS011;25454;49.878;8.618;2022-09-28T14:11:59;3.23;;;0.60;;
39778;SDS011;25454;49.878;8.618;2022-09-28T14:38:04;1.47;;;0.63;;
39778;SDS011;25454;49.878;8.618;2022-09-28T14:48:46;1.80;;;0.60;;
39778;SDS011;25454;49.878;8.618;2022-09-28T14:53:48;3.07;;;0.70;;
39778;SDS011;25454;49.878;8.618;2022-09-28T14:58:50;3.97;;;0.57;;
39778;SDS011;25454;49.878;8.618;2022-09-28T15:03:54;1.20;;;0.60;;
39778;SDS011;25454;49.878;8.618;2022-09-28T15:08:57;0.67;;;0.50;;
39778;SDS011;25454;49.878;8.618;2022-09-28T15:14:05;1.80;;;0.60;;
39778;SDS011;25454;49.878;8.618;2022-09-28T15:35:27;0.53;;;0.53;;
39778;SDS011;25454;49.878;8.618;2022-09-28T15:40:29;2.73;;;0.67;;
39778;SDS011;25454;49.878;8.618;2022-09-28T15:45:36;4.33;;;0.80;;
39778;SDS011;25454;49.878;8.618;2022-09-28T15:50:38;1.40;;;0.80;;
39778;SDS011;25454;49.878;8.618;2022-09-28T15:55:44;2.13;;;0.97;;
39778;SDS011;25454;49.878;8.618;2022-09-28T16:00:50;0.70;;;0.50;;
39778;SDS011;25454;49.878;8.618;2022-09-28T16:06:10;1.63;;;0.90;;
39778;SDS011;25454;49.878;8.618;2022-09-28T16:21:44;1.23;;;0.90;;
39778;SDS011;25454;49.878;8.618;2022-09-28T16:26:46;1.10;;;0.70;;
39778;SDS011;25454;49.878;8.618;2022-09-28T16:31:53;1.73;;;1.17;;
39778;SDS011;25454;49.878;8.618;2022-09-28T16:36:54;0.80;;;0.70;;
39778;SDS011;25454;49.878;8.618;2022-09-28T16:41:58;1.70;;;0.90;;
39778;SDS011;25454;49.878;8.618;2022-09-28T16:47:01;2.27;;;0.90;;
39778;SDS011;25454;49.878;8.618;2022-09-28T16:52:02;3.30;;;1.13;;
39778;SDS011;25454;49.878;8.618;2022-09-28T16:57:03;2.07;;;1.17;;
39778;SDS011;25454;49.878;8.618;2022-09-28T17:02:12;1.30;;;1.20;;
39778;SDS011;25454;49.878;8.618;2022-09-28T17:07:20;2.57;;;1.13;;
39778;SDS011;25454;49.878;8.618;2022-09-28T17:12:21;1.37;;;1.27;;
39778;SDS011;25454;49.878;8.618;2022-09-28T17:17:23;2.17;;;1.43;;
39778;SDS011;25454;49.878;8.618;2022-09-28T17:22:28;4.67;;;1.80;;
39778;SDS011;25454;49.878;8.618;2022-09-28T17:27:29;4.00;;;2.10;;
39778;SDS011;25454;49.878;8.618;2022-09-28T17:32:31;4.87;;;1.47;;
39778;SDS011;25454;49.878;8.618;2022-09-28T17:37:33;3.20;;;1.70;;
39778;SDS011;25454;49.878;8.618;2022-09-28T17:42:35;1.93;;;1.33;;
39778;SDS011;25454;49.878;8.618;2022-09-28T17:47:35;3.30;;;1.87;;
39778;SDS011;25454;49.878;8.618;2022-09-28T17:52:36;2.70;;;1.40;;
39778;SDS011;25454;49.878;8.618;2022-09-28T17:57:37;2.17;;;1.40;;
39778;SDS011;25454;49.878;8.618;2022-09-28T18:02:38;2.37;;;1.57;;
39778;SDS011;25454;49.878;8.618;2022-09-28T18:07:40;2.63;;;1.83;;
39778;SDS011;25454;49.878;8.618;2022-09-28T18:12:41;2.53;;;1.43;;
39778;SDS011;25454;49.878;8.618;2022-09-28T18:17:42;1.83;;;1.40;;
39778;SDS011;25454;49.878;8.618;2022-09-28T18:22:43;1.50;;;1.30;;
39778;SDS011;25454;49.878;8.618;2022-09-28T18:27:43;3.87;;;1.60;;
39778;SDS011;25454;49.878;8.618;2022-09-28T18:32:44;1.40;;;1.30;;
39778;SDS011;25454;49.878;8.618;2022-09-28T18:37:44;3.70;;;2.33;;
39778;SDS011;25454;49.878;8.618;2022-09-28T18:42:49;2.30;;;2.00;;
39778;SDS011;25454;49.878;8.618;2022-09-28T18:47:50;2.13;;;1.60;;
39778;SDS011;25454;49.878;8.618;2022-09-28T18:59:02;7.63;;;2.70;;
39778;SDS011;25454;49.878;8.618;2022-09-28T19:04:15;4.23;;;3.00;;
39778;SDS011;25454;49.878;8.618;2022-09-28T19:09:52;6.33;;;2.40;;
39778;SDS011;25454;49.878;8.618;2022-09-28T19:14:53;4.83;;;2.00;;
39778;SDS011;25454;49.878;8.618;2022-09-28T19:25:28;3.87;;;1.60;;
39778;SDS011;25454;49.878;8.618;2022-09-28T19:31:05;6.67;;;1.73;;
39778;SDS011;25454;49.878;8.618;2022-09-28T19:36:13;2.70;;;1.63;;
39778;SDS011;25454;49.878;8.618;2022-09-28T19:41:19;2.83;;;1.90;;
39778;SDS011;25454;49.878;8.618;2022-09-28T19:46:40;2.23;;;1.57;;
39778;SDS011;25454;49.878;8.618;2022-09-28T19:51:41;2.27;;;1.53;;
39778;SDS011;25454;49.878;8.618;2022-09-28T19:56:41;1.90;;;1.67;;
39778;SDS011;25454;49.878;8.618;2022-09-28T20:01:44;1.57;;;1.47;;
39778;SDS011;25454;49.878;8.618;2022-09-28T20:06:45;2.57;;;1.70;;
39778;SDS011;25454;49.878;8.618;2022-09-28T20:11:45;5.57;;;2.20;;
39778;SDS011;25454;49.878;8.618;2022-09-28T20:16:46;2.67;;;1.83;;
39778;SDS011;25454;49.878;8.618;2022-09-28T20:21:47;3.50;;;1.60;;
39778;SDS011;25454;49.878;8.618;2022-09-28T20:26:48;2.67;;;1.50;;
39778;SDS011;25454;49.878;8.618;2022-09-28T20:31:49;5.07;;;1.90;;
39778;SDS011;25454;49.878;8.618;2022-09-28T20:36:50;2.90;;;1.70;;
39778;SDS011;25454;49.878;8.618;2022-09-28T20:41:51;2.73;;;1.63;;
39778;SDS011;25454;49.878;8.618;2022-09-28T20:46:52;3.37;;;2.00;;
39778;SDS011;25454;49.878;8.618;2022-09-28T20:51:53;3.10;;;1.93;;
39778;SDS011;25454;49.878;8.618;2022-09-28T20:56:54;5.53;;;2.27;;
39778;SDS011;25454;49.878;8.618;2022-09-28T21:01:57;3.00;;;1.93;;
39778;SDS011;25454;49.878;8.618;2022-09-28T21:06:58;2.87;;;2.30;;
39778;SDS011;25454;49.878;8.618;2022-09-28T21:11:59;3.43;;;2.30;;
39778;SDS011;25454;49.878;8.618;2022-09-28T21:16:59;3.30;;;2.00;;
39778;SDS011;25454;49.878;8.618;2022-09-28T21:22:00;3.13;;;2.10;;
39778;SDS011;25454;49.878;8.618;2022-09-28T21:27:01;3.27;;;2.30;;
39778;SDS011;25454;49.878;8.618;2022-09-28T21:32:02;3.03;;;2.13;;
39778;SDS011;25454;49.878;8.618;2022-09-28T21:37:02;3.53;;;2.07;;
39778;SDS011;25454;49.878;8.618;2022-09-28T21:42:03;4.50;;;2.63;;
39778;SDS011;25454;49.878;8.618;2022-09-28T21:47:04;3.10;;;2.33;;
39778;SDS011;25454;49.878;8.618;2022-09-28T21:52:04;4.53;;;2.10;;
39778;SDS011;25454;49.878;8.618;2022-09-28T21:57:05;4.07;;;2.70;;
39778;SDS011;25454;49.878;8.618;2022-09-28T22:02:05;3.43;;;2.40;;
39778;SDS011;25454;49.878;8.618;2022-09-28T22:07:09;8.07;;;2.53;;
39778;SDS011;25454;49.878;8.618;2022-09-28T22:12:11;7.83;;;2.80;;
39778;SDS011;25454;49.878;8.618;2022-09-28T22:17:11;4.33;;;2.60;;
39778;SDS011;25454;49.878;8.618;2022-09-28T22:22:12;7.67;;;2.90;;
39778;SDS011;25454;49.878;8.618;2022-09-28T22:27:12;5.17;;;2.80;;
39778;SDS011;25454;49.878;8.618;2022-09-28T22:32:14;4.80;;;2.77;;
39778;SDS011;25454;49.878;8.618;2022-09-28T22:37:14;6.40;;;3.00;;
39778;SDS011;25454;49.878;8.618;2022-09-28T22:42:15;4.97;;;2.70;;
39778;SDS011;25454;49.878;8.618;2022-09-28T22:47:16;8.97;;;3.00;;
39778;SDS011;25454;49.878;8.618;2022-09-28T22:52:16;6.27;;;3.20;;
39778;SDS011;25454;49.878;8.618;2022-09-28T22:57:17;4.70;;;3.40;;
39778;SDS011;25454;49.878;8.618;2022-09-28T23:02:17;5.07;;;3.07;;
39778;SDS011;25454;49.878;8.618;2022-09-28T23:07:18;6.23;;;3.27;;
39778;SDS011;25454;49.878;8.618;2022-09-28T23:12:20;4.90;;;3.13;;
39778;SDS011;25454;49.878;8.618;2022-09-28T23:17:20;7.50;;;3.23;;
39778;SDS011;25454;49.878;8.618;2022-09-28T23:22:23;5.03;;;3.27;;
39778;SDS011;25454;49.878;8.618;2022-09-28T23:27:26;3.93;;;3.33;;
39778;SDS011;25454;49.878;8.618;2022-09-28T23:32:27;4.13;;;3.20;;
39778;SDS011;25454;49.878;8.618;2022-09-28T23:37:27;5.03;;;3.50;;
39778;SDS011;25454;49.878;8.618;2022-09-28T23:42:28;4.90;;;3.37;;
39778;SDS011;25454;49.878;8.618;2022-09-28T23:47:29;4.77;;;3.50;;
39778;SDS011;25454;49.878;8.618;2022-09-28T23:52:29;6.97;;;3.47;;
39778;SDS011;25454;49.878;8.618;2022-09-28T23:57:30;7.50;;;3.57;;
